Řízení letového provozu České republiky  
Aktualizace dat:  07.07.2020 16:26:24 UTC English version
   METEO Zobrazení stránky:  07.07.2020 16:27:23 UTC  
vysvětlivky
METAR EDDB 071620Z 26011KT 220V290 CAVOK 20/05 Q1016 NOSIG=
METAR EDDC 071620Z 25010KT 210V330 CAVOK 20/04 Q1017 NOSIG=
METAR EDDE 071620Z 28011KT CAVOK 19/06 Q1018 NOSIG=
METAR EDDF 071620Z 24006KT 190V300 CAVOK 23/05 Q1018 NOSIG=
METAR EDDM 071620Z VRB03KT CAVOK 20/07 Q1019 NOSIG=
METAR EDDN 071620Z 30008KT 260V330 CAVOK 21/06 Q1018 NOSIG=
METAR EDDP 071620Z 26013KT CAVOK 20/05 Q1017 NOSIG=
METAR EDDT 071620Z 26012KT 220V290 CAVOK 20/04 Q1016 NOSIG=
METAR EDQM NIL
METAR EPBY 071600Z 28013KT 250V310 CAVOK 18/06 Q1015=
METAR EPGD 071600Z 29015KT 9999 FEW042 17/07 Q1014=
METAR EPKK 071600Z 29009KT 270V330 9999 FEW050 17/06 Q1017=
METAR EPKT 071600Z 30008KT 270V350 CAVOK 17/06 Q1017=
METAR EPLL 071600Z 29009KT CAVOK 18/05 Q1016=
METAR EPPO 071600Z 29006KT 250V330 CAVOK 20/04 Q1016=
METAR EPRZ 071600Z 28009KT 9999 FEW043CB 18/09 Q1015=
METAR EPWA 071600Z 28008KT 250V310 CAVOK 19/08 Q1015 NOSIG=
METAR EPWR 071600Z 30008KT CAVOK 20/06 Q1017=
METAR LHBP 071600Z 32014KT CAVOK 22/08 Q1016 NOSIG=
METAR LHSM 071545Z AUTO 36009KT 320V060 9000 NSC 22/07 Q1018 NOSIG=
METAR LKBC 071600Z AUTO 28006KT 260V320 9999 FEW076 19/05 Q1019=
METAR LKCV 071600Z 30006KT 9999 FEW047 BKN080 20/09 Q1018 NOSIG RMK BLU BLU=
METAR LKKB 071600Z 28005KT 250V320 CAVOK 19/05 Q1018 NOSIG RMK BLU BLU=
METAR LKKU NIL
METAR LKKV 071600Z 29008KT 220V330 9999 SCT045 17/04 Q1019 RMK REG QNH 1017=
METAR LKLN 071600Z AUTO 27004KT 210V360 9999 SCT074 19/04 Q1019=
METAR LKMT 071600Z 20003KT 160V230 9999 SCT040 17/09 Q1018 NOSIG RMK REG QNH 1017=
METAR LKNA 071600Z 34007KT 310V010 CAVOK 17/07 Q1019 NOSIG RMK BLU BLU=
METAR LKPD 071600Z 30007KT CAVOK 19/07 Q1018 NOSIG RMK BLU BLU=
METAR LKPJ 071600Z AUTO 31009KT 280V340 CAVOK 19/07 Q1018=
METAR LKPR 071600Z 25008KT CAVOK 18/04 Q1018 NOSIG RMK REG QNH 1017=
METAR LKTB 071600Z 30008KT 250V330 CAVOK 19/07 Q1018 NOSIG RMK REG QNH 1017=
METAR LKVO NIL
METAR LOWI 071620Z 07010KT 050V110 9999 FEW070 23/08 Q1017 NOSIG=
METAR LOWL 071620Z AUTO 33006KT 300V010 9999 FEW060 21/07 Q1019 NOSIG=
METAR LOWS 071620Z 31005KT 220V360 9999 FEW060 20/07 Q1019 NOSIG=
METAR LOWW 071620Z 32008KT CAVOK 21/06 Q1018 NOSIG=
METAR LZIB 071600Z 35010KT 300V040 CAVOK 21/07 Q1018 NOSIG=
METAR LZKZ 071600Z 01013KT CAVOK 19/09 Q1016 NOSIG=
METAR LZMC 071600Z 34012KT CAVOK 21/04 Q1019=
METAR LZPP 071600Z 31011KT CAVOK 20/08 Q1018=
METAR LZSL 071600Z 32008KT CAVOK 19/06 Q1017=
METAR LZTT 071600Z 06007KT 9999 FEW046 SCT066 15/07 Q1017 NOSIG=
METAR LZZI 071600Z 30006KT 270V330 9999 FEW050 SCT080 17/08 Q1018=